sensor_id;sensor_type;location;lat;lon;timestamp;pressure;altitude;pressure_sealevel;temperature;humidity
7754;BME280;3921;42.266;23.122;2022-11-09T00:00:39;96266.75;;;10.62;68.75
7754;BME280;3921;42.266;23.122;2022-11-09T00:03:08;95801.06;;;7.51;68.74
7754;BME280;3921;42.266;23.122;2022-11-09T00:05:35;96100.91;;;9.36;68.55
7754;BME280;3921;42.266;23.122;2022-11-09T00:08:04;96074.13;;;9.29;69.08
7754;BME280;3921;42.266;23.122;2022-11-09T00:10:31;95927.03;;;8.34;68.11
7754;BME280;3921;42.266;23.122;2022-11-09T00:12:58;96063.91;;;9.11;67.68
7754;BME280;3921;42.266;23.122;2022-11-09T00:15:26;96198.38;;;9.88;67.66
7754;BME280;3921;42.266;23.122;2022-11-09T00:17:53;95919.41;;;8.21;67.31
7754;BME280;3921;42.266;23.122;2022-11-09T00:20:24;95795.72;;;7.21;67.01
7754;BME280;3921;42.266;23.122;2022-11-09T00:22:51;96002.44;;;8.58;68.13
7754;BME280;3921;42.266;23.122;2022-11-09T00:25:18;96117.31;;;9.05;67.68
7754;BME280;3921;42.266;23.122;2022-11-09T00:27:45;95763.78;;;6.98;66.98
7754;BME280;3921;42.266;23.122;2022-11-09T00:30:13;95725.13;;;6.69;68.01
7754;BME280;3921;42.266;23.122;2022-11-09T00:32:40;96153.31;;;9.10;69.22
7754;BME280;3921;42.266;23.122;2022-11-09T00:35:07;96050.78;;;8.49;70.20
7754;BME280;3921;42.266;23.122;2022-11-09T00:37:36;96079.53;;;8.84;69.94
7754;BME280;3921;42.266;23.122;2022-11-09T00:40:04;95934.13;;;7.95;69.34
7754;BME280;3921;42.266;23.122;2022-11-09T00:42:31;95823.94;;;7.12;69.10
7754;BME280;3921;42.266;23.122;2022-11-09T00:44:58;95678.84;;;6.30;69.56
7754;BME280;3921;42.266;23.122;2022-11-09T00:47:25;95990.25;;;8.16;69.82
7754;BME280;3921;42.266;23.122;2022-11-09T00:49:52;96263.56;;;9.81;68.98
7754;BME280;3921;42.266;23.122;2022-11-09T00:52:21;96102.59;;;8.57;69.99
7754;BME280;3921;42.266;23.122;2022-11-09T00:54:50;95956.50;;;7.85;69.98
7754;BME280;3921;42.266;23.122;2022-11-09T00:57:21;95995.97;;;8.06;70.18
7754;BME280;3921;42.266;23.122;2022-11-09T00:59:50;95840.69;;;7.19;69.39
7754;BME280;3921;42.266;23.122;2022-11-09T01:02:18;95742.56;;;6.65;68.77
7754;BME280;3921;42.266;23.122;2022-11-09T01:04:45;95802.00;;;6.92;68.55
7754;BME280;3921;42.266;23.122;2022-11-09T01:07:13;95710.34;;;6.22;67.90
7754;BME280;3921;42.266;23.122;2022-11-09T01:09:40;96110.47;;;8.87;68.27
7754;BME280;3921;42.266;23.122;2022-11-09T01:12:09;95763.34;;;6.63;68.26
7754;BME280;3921;42.266;23.122;2022-11-09T01:14:36;95970.81;;;7.93;68.52
7754;BME280;3921;42.266;23.122;2022-11-09T01:17:03;96318.78;;;9.81;67.99
7754;BME280;3921;42.266;23.122;2022-11-09T01:19:30;96154.25;;;9.20;68.09
7754;BME280;3921;42.266;23.122;2022-11-09T01:22:19;95952.53;;;7.97;68.42
7754;BME280;3921;42.266;23.122;2022-11-09T01:25:05;96315.41;;;9.78;68.46
7754;BME280;3921;42.266;23.122;2022-11-09T01:27:45;95843.94;;;7.13;67.84
7754;BME280;3921;42.266;23.122;2022-11-09T01:30:13;95768.31;;;6.60;68.05
7754;BME280;3921;42.266;23.122;2022-11-09T01:32:41;95978.13;;;7.80;67.97
7754;BME280;3921;42.266;23.122;2022-11-09T01:35:08;95806.31;;;7.00;67.91
7754;BME280;3921;42.266;23.122;2022-11-09T01:37:35;95936.38;;;7.74;67.98
7754;BME280;3921;42.266;23.122;2022-11-09T01:40:03;96145.78;;;9.09;68.11
7754;BME280;3921;42.266;23.122;2022-11-09T01:42:34;95697.94;;;6.26;68.26
7754;BME280;3921;42.266;23.122;2022-11-09T01:45:24;95983.47;;;8.04;68.39
7754;BME280;3921;42.266;23.122;2022-11-09T01:47:56;95835.59;;;7.11;68.20
7754;BME280;3921;42.266;23.122;2022-11-09T01:50:30;96273.50;;;9.69;68.69
7754;BME280;3921;42.266;23.122;2022-11-09T01:53:00;96261.78;;;9.70;68.88
7754;BME280;3921;42.266;23.122;2022-11-09T01:55:29;96047.22;;;8.34;69.31
7754;BME280;3921;42.266;23.122;2022-11-09T01:58:00;96174.19;;;9.06;69.05
7754;BME280;3921;42.266;23.122;2022-11-09T02:00:31;95663.06;;;5.76;68.34
7754;BME280;3921;42.266;23.122;2022-11-09T02:03:03;96168.03;;;8.81;68.82
7754;BME280;3921;42.266;23.122;2022-11-09T02:05:33;95913.91;;;7.13;68.17
7754;BME280;3921;42.266;23.122;2022-11-09T02:08:02;96183.97;;;8.88;68.37
7754;BME280;3921;42.266;23.122;2022-11-09T02:10:36;95908.84;;;7.07;67.58
7754;BME280;3921;42.266;23.122;2022-11-09T02:13:05;96192.47;;;8.99;67.27
7754;BME280;3921;42.266;23.122;2022-11-09T02:15:35;96158.88;;;8.83;66.93
7754;BME280;3921;42.266;23.122;2022-11-09T02:18:03;96101.47;;;8.33;67.91
7754;BME280;3921;42.266;23.122;2022-11-09T02:20:43;96112.50;;;8.46;67.27
7754;BME280;3921;42.266;23.122;2022-11-09T02:23:11;96077.94;;;8.22;67.38
7754;BME280;3921;42.266;23.122;2022-11-09T02:25:38;96007.06;;;7.61;67.41
7754;BME280;3921;42.266;23.122;2022-11-09T02:28:06;96182.13;;;8.73;66.49
7754;BME280;3921;42.266;23.122;2022-11-09T02:30:34;96186.16;;;8.60;66.85
7754;BME280;3921;42.266;23.122;2022-11-09T02:33:02;95899.66;;;7.06;66.58
7754;BME280;3921;42.266;23.122;2022-11-09T02:35:31;96248.59;;;9.12;67.04
7754;BME280;3921;42.266;23.122;2022-11-09T02:38:02;95814.59;;;6.41;66.85
7754;BME280;3921;42.266;23.122;2022-11-09T02:40:31;96081.09;;;8.07;67.10
7754;BME280;3921;42.266;23.122;2022-11-09T02:43:04;96314.03;;;9.30;67.43
7754;BME280;3921;42.266;23.122;2022-11-09T02:45:32;96280.53;;;9.25;67.49
7754;BME280;3921;42.266;23.122;2022-11-09T02:48:01;95814.06;;;6.07;66.78
7754;BME280;3921;42.266;23.122;2022-11-09T02:50:31;95972.22;;;7.12;67.95
7754;BME280;3921;42.266;23.122;2022-11-09T02:53:02;95864.69;;;6.50;67.17
7754;BME280;3921;42.266;23.122;2022-11-09T02:55:29;96059.72;;;7.68;67.12
7754;BME280;3921;42.266;23.122;2022-11-09T02:57:56;96130.03;;;7.88;67.71
7754;BME280;3921;42.266;23.122;2022-11-09T03:00:25;96013.78;;;7.07;68.10
7754;BME280;3921;42.266;23.122;2022-11-09T03:02:53;95843.84;;;5.98;67.83
7754;BME280;3921;42.266;23.122;2022-11-09T03:05:20;95996.16;;;7.00;68.31
7754;BME280;3921;42.266;23.122;2022-11-09T03:07:49;95758.16;;;5.48;68.40
7754;BME280;3921;42.266;23.122;2022-11-09T03:10:18;95779.56;;;5.38;68.75
7754;BME280;3921;42.266;23.122;2022-11-09T03:12:45;95974.09;;;6.76;69.65
7754;BME280;3921;42.266;23.122;2022-11-09T03:15:12;95741.13;;;5.27;69.09
7754;BME280;3921;42.266;23.122;2022-11-09T03:17:39;95902.63;;;6.31;68.18
7754;BME280;3921;42.266;23.122;2022-11-09T03:20:09;96301.59;;;8.75;68.38
7754;BME280;3921;42.266;23.122;2022-11-09T03:22:37;96222.44;;;8.31;69.00
7754;BME280;3921;42.266;23.122;2022-11-09T03:25:08;96119.78;;;7.73;68.57
7754;BME280;3921;42.266;23.122;2022-11-09T03:27:37;96032.19;;;7.12;68.52
7754;BME280;3921;42.266;23.122;2022-11-09T03:30:05;96287.28;;;8.67;69.26
7754;BME280;3921;42.266;23.122;2022-11-09T03:32:32;95871.28;;;5.98;69.03
7754;BME280;3921;42.266;23.122;2022-11-09T03:35:02;96287.31;;;8.68;68.36
7754;BME280;3921;42.266;23.122;2022-11-09T03:37:29;96070.44;;;7.08;69.05
7754;BME280;3921;42.266;23.122;2022-11-09T03:39:56;96218.00;;;8.13;68.75
7754;BME280;3921;42.266;23.122;2022-11-09T03:42:25;95794.06;;;5.59;68.71
7754;BME280;3921;42.266;23.122;2022-11-09T03:44:53;96309.03;;;8.71;68.45
7754;BME280;3921;42.266;23.122;2022-11-09T03:47:20;95803.22;;;5.58;68.45
7754;BME280;3921;42.266;23.122;2022-11-09T03:49:47;95987.28;;;6.65;68.87
7754;BME280;3921;42.266;23.122;2022-11-09T03:52:14;96163.78;;;7.60;68.45
7754;BME280;3921;42.266;23.122;2022-11-09T03:54:41;96318.28;;;8.73;67.70
7754;BME280;3921;42.266;23.122;2022-11-09T03:57:08;96069.78;;;7.18;68.02
7754;BME280;3921;42.266;23.122;2022-11-09T03:59:35;96345.69;;;8.66;67.82
7754;BME280;3921;42.266;23.122;2022-11-09T04:02:03;95931.25;;;6.03;68.09
7754;BME280;3921;42.266;23.122;2022-11-09T04:04:30;95902.81;;;5.96;68.00
7754;BME280;3921;42.266;23.122;2022-11-09T04:06:57;96001.34;;;6.60;68.36
7754;BME280;3921;42.266;23.122;2022-11-09T04:09:24;96315.41;;;8.49;68.93
7754;BME280;3921;42.266;23.122;2022-11-09T04:11:54;96236.97;;;8.00;68.30
7754;BME280;3921;42.266;23.122;2022-11-09T04:14:21;95774.78;;;5.05;68.60
7754;BME280;3921;42.266;23.122;2022-11-09T04:16:48;96198.34;;;7.83;69.47
7754;BME280;3921;42.266;23.122;2022-11-09T04:19:16;96106.66;;;7.33;68.44
7754;BME280;3921;42.266;23.122;2022-11-09T04:21:43;96106.59;;;7.29;68.92
7754;BME280;3921;42.266;23.122;2022-11-09T04:24:10;95829.72;;;5.55;68.27
7754;BME280;3921;42.266;23.122;2022-11-09T04:26:37;96190.00;;;7.84;68.78
7754;BME280;3921;42.266;23.122;2022-11-09T04:29:10;95831.09;;;5.39;69.44
7754;BME280;3921;42.266;23.122;2022-11-09T04:31:37;96149.88;;;7.26;70.15
7754;BME280;3921;42.266;23.122;2022-11-09T04:34:04;95978.09;;;6.19;70.16
7754;BME280;3921;42.266;23.122;2022-11-09T04:36:33;95797.25;;;5.10;70.51
7754;BME280;3921;42.266;23.122;2022-11-09T04:39:00;95827.56;;;5.28;70.83
7754;BME280;3921;42.266;23.122;2022-11-09T04:41:29;95985.88;;;6.36;70.43
7754;BME280;3921;42.266;23.122;2022-11-09T04:43:58;96256.63;;;7.79;71.14
7754;BME280;3921;42.266;23.122;2022-11-09T04:46:25;96206.09;;;7.48;72.58
7754;BME280;3921;42.266;23.122;2022-11-09T04:48:53;96146.31;;;7.13;72.45
7754;BME280;3921;42.266;23.122;2022-11-09T04:51:20;96044.44;;;6.52;72.54
7754;BME280;3921;42.266;23.122;2022-11-09T04:53:48;95831.34;;;5.11;72.86
7754;BME280;3921;42.266;23.122;2022-11-09T04:56:15;95781.72;;;4.79;72.57
7754;BME280;3921;42.266;23.122;2022-11-09T04:58:42;95993.84;;;6.17;73.18
7754;BME280;3921;42.266;23.122;2022-11-09T05:01:14;96317.16;;;8.06;73.22
7754;BME280;3921;42.266;23.122;2022-11-09T05:03:46;96139.00;;;6.77;73.54
7754;BME280;3921;42.266;23.122;2022-11-09T05:06:19;96116.41;;;6.71;74.56
7754;BME280;3921;42.266;23.122;2022-11-09T05:09:02;95836.56;;;4.82;73.97
7754;BME280;3921;42.266;23.122;2022-11-09T05:11:35;96351.38;;;8.07;74.27
7754;BME280;3921;42.266;23.122;2022-11-09T05:14:03;95810.50;;;4.68;74.69
7754;BME280;3921;42.266;23.122;2022-11-09T05:16:34;95991.28;;;5.73;74.67
7754;BME280;3921;42.266;23.122;2022-11-09T05:19:05;96200.75;;;6.84;74.33
7754;BME280;3921;42.266;23.122;2022-11-09T05:21:35;95751.19;;;4.12;74.39
7754;BME280;3921;42.266;23.122;2022-11-09T05:24:05;95798.84;;;4.29;74.47
7754;BME280;3921;42.266;23.122;2022-11-09T05:46:55;95777.31;;;3.95;75.42
7754;BME280;3921;42.266;23.122;2022-11-09T05:49:33;96309.00;;;7.26;75.71
7754;BME280;3921;42.266;23.122;2022-11-09T05:52:16;96153.91;;;6.33;75.28
7754;BME280;3921;42.266;23.122;2022-11-09T06:07:37;95945.06;;;4.74;76.64
7754;BME280;3921;42.266;23.122;2022-11-09T06:10:10;95914.88;;;4.60;76.56
7754;BME280;3921;42.266;23.122;2022-11-09T06:12:39;95826.56;;;4.10;77.25
7754;BME280;3921;42.266;23.122;2022-11-09T06:15:11;96139.19;;;5.72;78.14
7754;BME280;3921;42.266;23.122;2022-11-09T06:17:39;96059.25;;;5.28;77.95
7754;BME280;3921;42.266;23.122;2022-11-09T06:20:07;96406.00;;;7.42;79.13
7754;BME280;3921;42.266;23.122;2022-11-09T06:22:52;95801.53;;;3.69;79.22
7754;BME280;3921;42.266;23.122;2022-11-09T06:25:21;95884.03;;;4.20;79.79
7754;BME280;3921;42.266;23.122;2022-11-09T06:27:58;95747.94;;;3.45;80.14
7754;BME280;3921;42.266;23.122;2022-11-09T06:30:29;95850.47;;;4.05;80.41
7754;BME280;3921;42.266;23.122;2022-11-09T06:33:08;96386.13;;;7.48;80.77
7754;BME280;3921;42.266;23.122;2022-11-09T06:35:41;95806.78;;;3.80;80.22
7754;BME280;3921;42.266;23.122;2022-11-09T06:38:38;95858.06;;;4.44;80.05
7754;BME280;3921;42.266;23.122;2022-11-09T06:41:24;96388.16;;;7.66;81.26
7754;BME280;3921;42.266;23.122;2022-11-09T07:38:31;96386.78;;;8.75;80.78
7754;BME280;3921;42.266;23.122;2022-11-09T07:41:05;96263.97;;;8.19;81.03
7754;BME280;3921;42.266;23.122;2022-11-09T07:43:39;95863.97;;;5.65;80.47
7754;BME280;3921;42.266;23.122;2022-11-09T07:46:26;95816.53;;;5.60;81.35
7754;BME280;3921;42.266;23.122;2022-11-09T07:52:29;96032.66;;;6.91;80.16
7754;BME280;3921;42.266;23.122;2022-11-09T07:57:59;95850.19;;;5.84;80.22
7754;BME280;3921;42.266;23.122;2022-11-09T08:01:00;95893.72;;;5.97;80.62
7754;BME280;3921;42.266;23.122;2022-11-09T08:22:00;95881.34;;;6.51;81.02
7754;BME280;3921;42.266;23.122;2022-11-09T08:24:48;95852.81;;;6.37;80.87
7754;BME280;3921;42.266;23.122;2022-11-09T08:27:22;96373.19;;;9.82;81.50
7754;BME280;3921;42.266;23.122;2022-11-09T08:30:12;95841.53;;;6.60;81.27
7754;BME280;3921;42.266;23.122;2022-11-09T08:33:53;95880.25;;;6.88;81.31
7754;BME280;3921;42.266;23.122;2022-11-09T08:36:29;96391.84;;;10.09;81.90
7754;BME280;3921;42.266;23.122;2022-11-09T08:42:37;96383.72;;;10.28;81.02
7754;BME280;3921;42.266;23.122;2022-11-09T08:45:51;96104.59;;;8.84;81.39
7754;BME280;3921;42.266;23.122;2022-11-09T09:03:19;96251.19;;;10.01;80.78
7754;BME280;3921;42.266;23.122;2022-11-09T09:05:46;95827.94;;;7.69;80.60
7754;BME280;3921;42.266;23.122;2022-11-09T09:08:19;95888.34;;;8.04;80.54
7754;BME280;3921;42.266;23.122;2022-11-09T09:11:00;96364.25;;;11.11;80.70
7754;BME280;3921;42.266;23.122;2022-11-09T09:13:52;96359.28;;;11.20;80.31
7754;BME280;3921;42.266;23.122;2022-11-09T09:16:59;96171.75;;;10.13;79.79
7754;BME280;3921;42.266;23.122;2022-11-09T09:19:35;95904.72;;;8.55;80.18
7754;BME280;3921;42.266;23.122;2022-11-09T09:22:37;95874.69;;;8.55;80.43
7754;BME280;3921;42.266;23.122;2022-11-09T09:25:36;96220.78;;;10.80;80.42
7754;BME280;3921;42.266;23.122;2022-11-09T09:28:28;96341.91;;;11.64;80.58
7754;BME280;3921;42.266;23.122;2022-11-09T09:31:08;95869.69;;;8.60;80.50
7754;BME280;3921;42.266;23.122;2022-11-09T09:33:39;95801.81;;;8.31;80.80
7754;BME280;3921;42.266;23.122;2022-11-09T09:36:30;96381.38;;;11.76;81.09
7754;BME280;3921;42.266;23.122;2022-11-09T09:42:16;95939.53;;;9.29;81.29
7754;BME280;3921;42.266;23.122;2022-11-09T09:44:56;96048.72;;;10.11;81.80
7754;BME280;3921;42.266;23.122;2022-11-09T09:47:44;95837.31;;;8.89;81.46
7754;BME280;3921;42.266;23.122;2022-11-09T09:50:23;96245.38;;;11.67;82.22
7754;BME280;3921;42.266;23.122;2022-11-09T09:53:15;95881.94;;;9.42;81.68
7754;BME280;3921;42.266;23.122;2022-11-09T09:55:54;95796.53;;;9.13;81.91
7754;BME280;3921;42.266;23.122;2022-11-09T09:58:31;96096.00;;;11.08;81.68
7754;BME280;3921;42.266;23.122;2022-11-09T10:01:19;95848.56;;;9.64;81.46
7754;BME280;3921;42.266;23.122;2022-11-09T10:03:50;95861.16;;;9.84;80.86
7754;BME280;3921;42.266;23.122;2022-11-09T10:06:48;96008.81;;;10.97;80.69
7754;BME280;3921;42.266;23.122;2022-11-09T10:09:44;95781.69;;;9.77;79.46
7754;BME280;3921;42.266;23.122;2022-11-09T10:12:30;95880.59;;;10.51;78.62
7754;BME280;3921;42.266;23.122;2022-11-09T10:15:14;95791.78;;;10.18;77.52
7754;BME280;3921;42.266;23.122;2022-11-09T10:18:03;96163.03;;;12.77;77.44
7754;BME280;3921;42.266;23.122;2022-11-09T10:21:08;95819.41;;;10.76;76.39
7754;BME280;3921;42.266;23.122;2022-11-09T10:24:22;95839.53;;;10.90;75.81
7754;BME280;3921;42.266;23.122;2022-11-09T10:27:25;95807.66;;;10.95;74.79
7754;BME280;3921;42.266;23.122;2022-11-09T10:30:15;95861.25;;;11.12;74.20
7754;BME280;3921;42.266;23.122;2022-11-09T10:32:48;95807.63;;;11.00;74.04
7754;BME280;3921;42.266;23.122;2022-11-09T10:35:42;95816.00;;;11.05;74.17
7754;BME280;3921;42.266;23.122;2022-11-09T10:38:25;96146.06;;;13.07;74.45
7754;BME280;3921;42.266;23.122;2022-11-09T10:41:41;95754.13;;;10.61;74.05
7754;BME280;3921;42.266;23.122;2022-11-09T10:44:41;95980.97;;;12.08;74.56
7754;BME280;3921;42.266;23.122;2022-11-09T10:47:29;95800.13;;;10.83;74.11
7754;BME280;3921;42.266;23.122;2022-11-09T10:51:17;96077.44;;;12.41;74.72
7754;BME280;3921;42.266;23.122;2022-11-09T10:53:37;95811.84;;;10.88;74.39
7754;BME280;3921;42.266;23.122;2022-11-09T10:56:30;95775.06;;;10.61;74.05
7754;BME280;3921;42.266;23.122;2022-11-09T10:59:57;95768.38;;;10.56;73.97
7754;BME280;3921;42.266;23.122;2022-11-09T11:02:46;95749.94;;;10.51;73.89
7754;BME280;3921;42.266;23.122;2022-11-09T11:05:36;95800.97;;;10.83;74.16
7754;BME280;3921;42.266;23.122;2022-11-09T11:08:45;95736.50;;;10.59;74.15
7754;BME280;3921;42.266;23.122;2022-11-09T11:11:21;95806.00;;;10.93;74.48
7754;BME280;3921;42.266;23.122;2022-11-09T11:14:09;95844.47;;;11.22;74.55
7754;BME280;3921;42.266;23.122;2022-11-09T11:16:42;95789.25;;;10.85;74.07
7754;BME280;3921;42.266;23.122;2022-11-09T11:19:36;95808.50;;;10.97;74.55
7754;BME280;3921;42.266;23.122;2022-11-09T11:22:27;95930.66;;;11.96;74.54
7754;BME280;3921;42.266;23.122;2022-11-09T11:46:26;95836.81;;;11.56;73.77
7754;BME280;3921;42.266;23.122;2022-11-09T12:11:35;95931.25;;;12.42;73.77
7754;BME280;3921;42.266;23.122;2022-11-09T12:14:28;95932.91;;;12.51;74.00
7754;BME280;3921;42.266;23.122;2022-11-09T12:17:09;95701.06;;;11.28;74.14
7754;BME280;3921;42.266;23.122;2022-11-09T12:19:55;95752.94;;;11.55;73.55
7754;BME280;3921;42.266;23.122;2022-11-09T12:22:40;95820.69;;;11.98;73.91
7754;BME280;3921;42.266;23.122;2022-11-09T12:25:35;95983.78;;;13.07;73.77
7754;BME280;3921;42.266;23.122;2022-11-09T12:28:43;95928.56;;;12.67;73.54
7754;BME280;3921;42.266;23.122;2022-11-09T12:34:40;96161.31;;;14.16;74.23
7754;BME280;3921;42.266;23.122;2022-11-09T12:37:25;95758.75;;;11.62;74.11
7754;BME280;3921;42.266;23.122;2022-11-09T12:40:25;95859.03;;;12.38;73.99
7754;BME280;3921;42.266;23.122;2022-11-09T12:53:25;95640.03;;;11.03;73.17
7754;BME280;3921;42.266;23.122;2022-11-09T12:56:13;95713.53;;;11.50;73.24
7754;BME280;3921;42.266;23.122;2022-11-09T12:59:32;95850.53;;;12.58;73.36
7754;BME280;3921;42.266;23.122;2022-11-09T13:02:29;96157.75;;;14.37;73.19
7754;BME280;3921;42.266;23.122;2022-11-09T13:05:30;95837.22;;;12.37;72.92
7754;BME280;3921;42.266;23.122;2022-11-09T13:11:20;95702.56;;;11.64;72.40
7754;BME280;3921;42.266;23.122;2022-11-09T13:14:26;95713.38;;;11.83;72.61
7754;BME280;3921;42.266;23.122;2022-11-09T13:24:10;95976.78;;;13.41;73.68
7754;BME280;3921;42.266;23.122;2022-11-09T13:29:56;95989.38;;;13.45;73.53
7754;BME280;3921;42.266;23.122;2022-11-09T13:32:38;96134.13;;;14.41;73.80
7754;BME280;3921;42.266;23.122;2022-11-09T13:38:34;95711.75;;;11.67;73.12
7754;BME280;3921;42.266;23.122;2022-11-09T13:41:46;95649.88;;;11.38;72.88
7754;BME280;3921;42.266;23.122;2022-11-09T13:55:38;95701.69;;;11.64;73.14
7754;BME280;3921;42.266;23.122;2022-11-09T13:58:41;95646.59;;;11.30;73.11
7754;BME280;3921;42.266;23.122;2022-11-09T14:01:27;95839.56;;;12.60;73.35
7754;BME280;3921;42.266;23.122;2022-11-09T14:04:35;95663.19;;;11.56;73.33
7754;BME280;3921;42.266;23.122;2022-11-09T14:07:25;95669.97;;;11.40;73.08
7754;BME280;3921;42.266;23.122;2022-11-09T14:10:11;95845.47;;;12.59;73.13
7754;BME280;3921;42.266;23.122;2022-11-09T14:13:12;95882.31;;;12.75;73.43
7754;BME280;3921;42.266;23.122;2022-11-09T14:16:05;95827.03;;;12.53;73.36
7754;BME280;3921;42.266;23.122;2022-11-09T14:26:00;96134.31;;;14.21;73.63
7754;BME280;3921;42.266;23.122;2022-11-09T14:29:12;95607.41;;;10.91;73.79
7754;BME280;3921;42.266;23.122;2022-11-09T14:32:35;95640.81;;;11.11;73.99
7754;BME280;3921;42.266;23.122;2022-11-09T14:35:37;95640.81;;;11.11;74.04
7754;BME280;3921;42.266;23.122;2022-11-09T14:50:50;95665.22;;;10.96;74.81
7754;BME280;3921;42.266;23.122;2022-11-09T14:57:05;95645.19;;;10.74;75.37
7754;BME280;3921;42.266;23.122;2022-11-09T15:00:19;95644.28;;;10.83;75.51
7754;BME280;3921;42.266;23.122;2022-11-09T15:16:30;95903.75;;;12.06;75.92
7754;BME280;3921;42.266;23.122;2022-11-09T15:21:36;95765.69;;;11.11;76.16
7754;BME280;3921;42.266;23.122;2022-11-09T15:24:13;95848.53;;;11.63;76.21
7754;BME280;3921;42.266;23.122;2022-11-09T15:26:59;95673.75;;;10.50;76.95
7754;BME280;3921;42.266;23.122;2022-11-09T15:29:43;95687.06;;;10.75;76.52
7754;BME280;3921;42.266;23.122;2022-11-09T15:32:17;96167.75;;;13.46;76.58
7754;BME280;3921;42.266;23.122;2022-11-09T18:22:34;95930.38;;;9.36;72.10
7754;BME280;3921;42.266;23.122;2022-11-09T22:20:24;95880.19;;;6.32;69.34
7754;BME280;3921;42.266;23.122;2022-11-09T22:23:08;95955.94;;;6.83;68.44
7754;BME280;3921;42.266;23.122;2022-11-09T22:25:37;96277.53;;;8.88;68.73
7754;BME280;3921;42.266;23.122;2022-11-09T22:28:05;95855.25;;;6.34;68.52
7754;BME280;3921;42.266;23.122;2022-11-09T22:30:34;96014.13;;;7.29;68.73
7754;BME280;3921;42.266;23.122;2022-11-09T22:33:04;95866.09;;;6.36;68.28
7754;BME280;3921;42.266;23.122;2022-11-09T22:35:35;96161.97;;;8.05;67.82
7754;BME280;3921;42.266;23.122;2022-11-09T22:38:04;96053.38;;;7.36;68.07
7754;BME280;3921;42.266;23.122;2022-11-09T22:44:03;96178.66;;;8.04;67.79
7754;BME280;3921;42.266;23.122;2022-11-09T22:46:52;96293.84;;;8.59;68.30
7754;BME280;3921;42.266;23.122;2022-11-09T22:52:11;95859.78;;;6.06;68.10
7754;BME280;3921;42.266;23.122;2022-11-09T22:52:54;95775.47;;;5.40;68.31
7754;BME280;3921;42.266;23.122;2022-11-09T22:55:44;96055.44;;;7.08;68.57
7754;BME280;3921;42.266;23.122;2022-11-09T23:07:58;95855.06;;;5.78;69.28
7754;BME280;3921;42.266;23.122;2022-11-09T23:08:57;95950.47;;;6.55;69.28
7754;BME280;3921;42.266;23.122;2022-11-09T23:11:25;96176.75;;;7.88;69.85
7754;BME280;3921;42.266;23.122;2022-11-09T23:14:01;95846.84;;;5.82;69.23
7754;BME280;3921;42.266;23.122;2022-11-09T23:16:58;95842.81;;;5.90;69.38
7754;BME280;3921;42.266;23.122;2022-11-09T23:19:46;95864.69;;;6.02;68.87
7754;BME280;3921;42.266;23.122;2022-11-09T23:22:14;96251.53;;;8.22;68.87
7754;BME280;3921;42.266;23.122;2022-11-09T23:24:42;96026.06;;;6.95;68.93
7754;BME280;3921;42.266;23.122;2022-11-09T23:27:30;95991.25;;;6.54;69.23
7754;BME280;3921;42.266;23.122;2022-11-09T23:29:57;96259.03;;;8.22;69.34
7754;BME280;3921;42.266;23.122;2022-11-09T23:32:29;95808.09;;;5.54;69.05
7754;BME280;3921;42.266;23.122;2022-11-09T23:34:58;95870.34;;;5.92;68.93
7754;BME280;3921;42.266;23.122;2022-11-09T23:37:28;96028.63;;;6.53;68.69
7754;BME280;3921;42.266;23.122;2022-11-09T23:39:57;96371.59;;;8.65;68.52
7754;BME280;3921;42.266;23.122;2022-11-09T23:42:29;96262.00;;;8.00;68.56
7754;BME280;3921;42.266;23.122;2022-11-09T23:44:58;96017.56;;;6.38;68.41
7754;BME280;3921;42.266;23.122;2022-11-09T23:47:25;96219.19;;;7.35;68.10
7754;BME280;3921;42.266;23.122;2022-11-09T23:49:56;96038.56;;;6.48;68.69
7754;BME280;3921;42.266;23.122;2022-11-09T23:52:31;96157.28;;;7.22;68.17
7754;BME280;3921;42.266;23.122;2022-11-09T23:55:08;95921.34;;;5.67;66.99
7754;BME280;3921;42.266;23.122;2022-11-09T23:57:48;96369.63;;;8.47;67.68
